»·PEaware :: SWA4072 KLAS-KBUR

SWA4072 :: KLAS-KBUR

FLIGHT INFORMATION

Flight Status: Arrived
Operator:
Southwest Airlines
More flights by this operator :: More flights under this callsign
Pilot: Daniel W. (24238)
Aircraft: BOEING 737-700
(B737)
More flights by this aircraft type
Origin: KLAS McCarran Intl
United States
Destination: KBUR Bob Hope-Burbank
United States
More flights between these airports :: More routes between these airports
Route: BOACH8 WHIGG KREME JANNY5
File this flight plan on PilotEdge
Remarks: PBN / A1D1O1S2T1 NAV / RNVD1E1A1 RNP10 DOF / 210111 REG / N437WN CODE / A53F20 PER / C
Altitude:
(Current/Filed)
22,000ft
Speed:
(Current/Filed)
351kts
Departed: 11-Jan-21 03:06 PM
Arrived: 11-Jan-21 03:47 PM
Distance/Time
Traveled:
193nm/0:41
Distance/Time
To Go:
Arrived

Flight Plot

Page will automatically refresh every two minutes.

Flight plan parsing failed; only flown route is shown


Map Options




Map Legend


Flown Route
Filed Route
Departure Airport
Arrival Airport
Navaid (VOR, NDB)
Fix

Horizontal Profiles

Position Reports

Time Latitude Longitude Heading Altitude Ground
Speed
11-Jan-21 13:54 36.082310 -115.153194 25 2189ft 0kts
11-Jan-21 13:55 36.082310 -115.153194 25 2189ft 0kts
11-Jan-21 13:56 36.082310 -115.153194 25 2189ft 0kts
11-Jan-21 13:57 36.082310 -115.153194 25 2189ft 0kts
11-Jan-21 13:58 36.082310 -115.153194 25 2189ft 0kts
11-Jan-21 13:59 36.082310 -115.153194 25 2189ft 0kts
11-Jan-21 14:00 36.082310 -115.153194 25 2189ft 0kts
11-Jan-21 14:01 36.082310 -115.153194 25 2189ft 0kts
11-Jan-21 14:02 36.082310 -115.153194 25 2189ft 0kts
11-Jan-21 14:03 36.082310 -115.153194 25 2189ft 0kts
11-Jan-21 14:04 36.082310 -115.153194 25 2189ft 0kts
11-Jan-21 14:05 36.082310 -115.153194 25 2189ft 0kts
11-Jan-21 14:06 36.082310 -115.153194 25 2189ft 0kts
11-Jan-21 14:07 36.082310 -115.153194 25 2189ft 0kts
11-Jan-21 14:08 36.082310 -115.153194 25 2189ft 0kts
11-Jan-21 14:09 36.082310 -115.153194 25 2189ft 0kts
11-Jan-21 14:10 36.082310 -115.153194 25 2189ft 0kts
11-Jan-21 14:11 36.082310 -115.153194 25 2189ft 0kts
11-Jan-21 14:12 36.082310 -115.153194 25 2189ft 0kts
11-Jan-21 14:13 36.082310 -115.153194 25 2189ft 0kts
11-Jan-21 14:14 36.082310 -115.153194 25 2189ft 0kts
11-Jan-21 14:15 36.082310 -115.153194 25 2189ft 0kts
11-Jan-21 14:16 36.082310 -115.153194 25 2189ft 0kts
11-Jan-21 14:17 36.082310 -115.153194 25 2189ft 0kts
11-Jan-21 14:18 36.082310 -115.153194 25 2189ft 0kts
11-Jan-21 14:19 36.082310 -115.153194 25 2189ft 0kts
11-Jan-21 14:20 36.082310 -115.153194 25 2189ft 0kts
11-Jan-21 14:21 36.082310 -115.153194 25 2189ft 0kts
11-Jan-21 14:22 36.082310 -115.153194 25 2189ft 0kts
11-Jan-21 14:23 36.082310 -115.153194 25 2189ft 0kts
11-Jan-21 14:24 36.082310 -115.153194 25 2189ft 0kts
11-Jan-21 14:25 36.082310 -115.153194 25 2189ft 0kts
11-Jan-21 14:26 36.082310 -115.153194 25 2189ft 0kts
11-Jan-21 14:27 36.082310 -115.153194 25 2189ft 0kts
11-Jan-21 14:28 36.082310 -115.153194 25 2189ft 0kts
11-Jan-21 14:29 36.082310 -115.153194 25 2189ft 0kts
11-Jan-21 14:30 36.082310 -115.153194 25 2189ft 0kts
11-Jan-21 14:31 36.082310 -115.153194 25 2189ft 0kts
11-Jan-21 14:32 36.082310 -115.153194 25 2189ft 0kts
11-Jan-21 14:33 36.082310 -115.153194 25 2189ft 0kts
11-Jan-21 14:34 36.082310 -115.153194 25 2189ft 0kts
11-Jan-21 14:35 36.082310 -115.153194 25 2189ft 0kts
11-Jan-21 14:37 36.082310 -115.153194 25 2189ft 0kts
11-Jan-21 14:38 36.082310 -115.153194 25 2189ft 0kts
11-Jan-21 14:39 36.082310 -115.153194 25 2189ft 0kts
11-Jan-21 14:40 36.082310 -115.153194 25 2189ft 0kts
11-Jan-21 14:41 36.082310 -115.153194 25 2189ft 0kts
11-Jan-21 14:42 36.082310 -115.153194 25 2189ft 0kts
11-Jan-21 14:43 36.082310 -115.153194 25 2189ft 0kts
11-Jan-21 14:44 36.082310 -115.153194 25 2189ft 0kts
11-Jan-21 14:45 36.082310 -115.153194 25 2189ft 0kts
11-Jan-21 14:46 36.082310 -115.153194 25 2189ft 0kts
11-Jan-21 14:47 36.082310 -115.153194 25 2189ft 0kts
11-Jan-21 14:48 36.082310 -115.153194 25 2189ft 0kts
11-Jan-21 14:49 36.082310 -115.153194 25 2189ft 0kts
11-Jan-21 14:50 36.082310 -115.153194 25 2189ft 0kts
11-Jan-21 14:51 36.082310 -115.153194 25 2189ft 0kts
11-Jan-21 14:52 36.082310 -115.153194 25 2189ft 0kts
11-Jan-21 14:52 36.082310 -115.153194 25 2189ft 0kts
11-Jan-21 14:53 36.082310 -115.153194 25 2189ft 0kts
11-Jan-21 14:55 36.082310 -115.153194 25 2189ft 0kts
11-Jan-21 14:56 36.082310 -115.153194 25 2189ft 0kts
11-Jan-21 14:56 36.082310 -115.153194 25 2189ft 0kts
11-Jan-21 14:57 36.082310 -115.153194 25 2189ft 0kts
11-Jan-21 14:58 36.081989 -115.153260 343 2189ft 2kts
11-Jan-21 14:59 36.081523 -115.152767 289 2189ft 0kts
11-Jan-21 15:00 36.081523 -115.152767 289 2189ft 0kts
11-Jan-21 15:01 36.081488 -115.154529 291 2189ft 17kts
11-Jan-21 15:02 36.087924 -115.157443 24 2189ft 24kts
11-Jan-21 15:03 36.094581 -115.153632 24 2189ft 27kts
11-Jan-21 15:04 36.097854 -115.153994 205 2189ft 13kts
11-Jan-21 15:05 36.069101 -115.170604 205 2921ft 180kts
11-Jan-21 15:06 36.016920 -115.201942 216 5495ft 244kts
11-Jan-21 15:07 35.980442 -115.282362 237 8712ft 283kts
11-Jan-21 15:08 35.904807 -115.311500 181 12197ft 327kts
11-Jan-21 15:09 35.803575 -115.309559 172 15104ft 385kts
11-Jan-21 15:10 35.693458 -115.303721 194 18721ft 409kts
11-Jan-21 15:11 35.604868 -115.391911 233 21770ft 426kts
11-Jan-21 15:12 35.524902 -115.500872 230 22341ft 430kts
11-Jan-21 15:13 35.440216 -115.605031 226 22340ft 431kts
11-Jan-21 15:14 35.353587 -115.706668 227 22336ft 431kts
11-Jan-21 15:15 35.267065 -115.808682 227 22338ft 431kts
11-Jan-21 15:16 35.181188 -115.910536 227 22342ft 430kts
11-Jan-21 15:17 35.095215 -116.012089 227 22331ft 428kts
11-Jan-21 15:18 35.009165 -116.112775 227 22330ft 427kts
11-Jan-21 15:19 34.925520 -116.215342 236 22337ft 422kts
11-Jan-21 15:20 34.871717 -116.339985 249 22340ft 415kts
11-Jan-21 15:21 34.822223 -116.467525 249 22342ft 415kts
11-Jan-21 15:22 34.783199 -116.597566 265 22336ft 402kts
11-Jan-21 15:23 34.770694 -116.730222 268 22190ft 393kts
11-Jan-21 15:24 34.757836 -116.861221 268 21256ft 387kts
11-Jan-21 15:25 34.744644 -116.990797 267 20362ft 383kts
11-Jan-21 15:26 34.731909 -117.118454 268 19485ft 378kts
11-Jan-21 15:27 34.718914 -117.245343 267 18610ft 375kts
11-Jan-21 15:28 34.705730 -117.370424 267 17622ft 373kts
11-Jan-21 15:29 34.692785 -117.493371 267 16676ft 364kts
11-Jan-21 15:30 34.679786 -117.614926 267 15834ft 359kts
11-Jan-21 15:31 34.667176 -117.734761 267 15004ft 354kts
11-Jan-21 15:32 34.654522 -117.852401 266 14189ft 348kts
11-Jan-21 15:33 34.641871 -117.969157 265 12862ft 346kts
11-Jan-21 15:34 34.628342 -118.082354 260 11499ft 327kts
11-Jan-21 15:35 34.605156 -118.183545 256 10248ft 295kts
11-Jan-21 15:36 34.584369 -118.275434 256 9110ft 277kts
11-Jan-21 15:37 34.564202 -118.365191 256 8138ft 273kts
11-Jan-21 15:38 34.532491 -118.447045 220 7920ft 280kts
11-Jan-21 15:39 34.461502 -118.476082 188 6555ft 261kts
11-Jan-21 15:40 34.395752 -118.487655 187 5199ft 225kts
11-Jan-21 15:41 34.345664 -118.463600 128 4995ft 177kts
11-Jan-21 15:42 34.316042 -118.420992 129 3922ft 167kts
11-Jan-21 15:43 34.288723 -118.383211 144 2871ft 130kts
11-Jan-21 15:44 34.254595 -118.372054 165 1760ft 128kts
11-Jan-21 15:45 34.219988 -118.362500 166 981ft 124kts
11-Jan-21 15:46 34.198826 -118.355939 90 729ft 11kts
11-Jan-21 15:47 34.197176 -118.352628 91 729ft 7kts
11-Jan-21 15:48 34.196800 -118.352388 180 729ft 0kts
11-Jan-21 15:49 34.196800 -118.352388 180 729ft 0kts
11-Jan-21 15:50 34.196800 -118.352388 180 729ft 0kts
11-Jan-21 15:51 34.196800 -118.352388 180 729ft 0kts
11-Jan-21 15:52 34.196800 -118.352388 180 729ft 0kts
11-Jan-21 15:53 34.196800 -118.352388 180 729ft 0kts
11-Jan-21 15:54 34.196800 -118.352388 180 729ft 0kts
11-Jan-21 15:55 34.196800 -118.352388 180 729ft 0kts
11-Jan-21 15:56 34.196800 -118.352388 180 729ft 0kts
11-Jan-21 15:57 34.196800 -118.352388 180 729ft 0kts
11-Jan-21 15:58 34.196800 -118.352388 180 729ft 0kts
11-Jan-21 15:59 34.196800 -118.352388 180 729ft 0kts
11-Jan-21 16:00 34.196800 -118.352388 180 729ft 0kts

Navigation Log

Ident Type
Flight plan parsing failed, navigation log unavailable